sensor_id;sensor_type;location;lat;lon;timestamp;P1;durP1;ratioP1;P2;durP2;ratioP2
15848;SDS011;8024;48.708;9.394;2023-07-29T00:02:04;1.80;;;1.50;;
15848;SDS011;8024;48.708;9.394;2023-07-29T00:04:31;1.30;;;1.27;;
15848;SDS011;8024;48.708;9.394;2023-07-29T00:06:59;2.37;;;1.67;;
15848;SDS011;8024;48.708;9.394;2023-07-29T00:09:27;1.50;;;1.40;;
15848;SDS011;8024;48.708;9.394;2023-07-29T00:11:54;1.90;;;1.80;;
15848;SDS011;8024;48.708;9.394;2023-07-29T00:14:21;1.97;;;1.80;;
15848;SDS011;8024;48.708;9.394;2023-07-29T00:16:48;2.37;;;2.17;;
15848;SDS011;8024;48.708;9.394;2023-07-29T00:19:16;2.33;;;2.20;;
15848;SDS011;8024;48.708;9.394;2023-07-29T00:21:43;4.13;;;2.50;;
15848;SDS011;8024;48.708;9.394;2023-07-29T00:24:10;3.27;;;2.60;;
15848;SDS011;8024;48.708;9.394;2023-07-29T00:26:41;3.37;;;2.57;;
15848;SDS011;8024;48.708;9.394;2023-07-29T00:29:08;2.60;;;2.30;;
15848;SDS011;8024;48.708;9.394;2023-07-29T00:31:35;2.77;;;2.57;;
15848;SDS011;8024;48.708;9.394;2023-07-29T00:34:02;4.00;;;3.07;;
15848;SDS011;8024;48.708;9.394;2023-07-29T00:36:29;2.80;;;2.57;;
15848;SDS011;8024;48.708;9.394;2023-07-29T00:38:56;2.97;;;2.73;;
15848;SDS011;8024;48.708;9.394;2023-07-29T00:41:23;3.20;;;2.90;;
15848;SDS011;8024;48.708;9.394;2023-07-29T00:43:53;3.40;;;3.10;;
15848;SDS011;8024;48.708;9.394;2023-07-29T00:46:20;4.07;;;2.80;;
15848;SDS011;8024;48.708;9.394;2023-07-29T00:48:48;3.07;;;2.53;;
15848;SDS011;8024;48.708;9.394;2023-07-29T00:51:15;3.20;;;3.00;;
15848;SDS011;8024;48.708;9.394;2023-07-29T00:53:42;4.00;;;2.63;;
15848;SDS011;8024;48.708;9.394;2023-07-29T00:56:09;3.57;;;3.27;;
15848;SDS011;8024;48.708;9.394;2023-07-29T00:58:37;5.37;;;2.73;;
15848;SDS011;8024;48.708;9.394;2023-07-29T01:01:05;4.17;;;2.90;;
15848;SDS011;8024;48.708;9.394;2023-07-29T01:03:32;2.90;;;2.50;;
15848;SDS011;8024;48.708;9.394;2023-07-29T01:06:04;3.10;;;2.60;;
15848;SDS011;8024;48.708;9.394;2023-07-29T01:08:43;3.67;;;2.87;;
15848;SDS011;8024;48.708;9.394;2023-07-29T01:11:21;3.40;;;2.77;;
15848;SDS011;8024;48.708;9.394;2023-07-29T01:13:58;3.73;;;2.70;;
15848;SDS011;8024;48.708;9.394;2023-07-29T01:16:33;3.10;;;2.03;;
15848;SDS011;8024;48.708;9.394;2023-07-29T01:19:05;2.70;;;2.40;;
15848;SDS011;8024;48.708;9.394;2023-07-29T01:21:35;2.80;;;2.60;;
15848;SDS011;8024;48.708;9.394;2023-07-29T01:24:04;2.93;;;2.73;;
15848;SDS011;8024;48.708;9.394;2023-07-29T01:26:31;2.47;;;2.27;;
15848;SDS011;8024;48.708;9.394;2023-07-29T01:28:58;2.13;;;2.03;;
15848;SDS011;8024;48.708;9.394;2023-07-29T01:31:27;4.57;;;2.10;;
15848;SDS011;8024;48.708;9.394;2023-07-29T01:33:59;2.37;;;2.07;;
15848;SDS011;8024;48.708;9.394;2023-07-29T01:36:32;2.90;;;2.00;;
15848;SDS011;8024;48.708;9.394;2023-07-29T01:39:05;1.97;;;1.73;;
15848;SDS011;8024;48.708;9.394;2023-07-29T01:41:33;2.73;;;2.10;;
15848;SDS011;8024;48.708;9.394;2023-07-29T01:44:01;2.30;;;1.90;;
15848;SDS011;8024;48.708;9.394;2023-07-29T01:46:29;2.23;;;2.03;;
15848;SDS011;8024;48.708;9.394;2023-07-29T01:48:59;2.77;;;2.30;;
15848;SDS011;8024;48.708;9.394;2023-07-29T01:51:26;3.87;;;2.60;;
15848;SDS011;8024;48.708;9.394;2023-07-29T01:53:53;4.03;;;2.37;;
15848;SDS011;8024;48.708;9.394;2023-07-29T01:56:23;2.20;;;2.00;;
15848;SDS011;8024;48.708;9.394;2023-07-29T01:58:50;2.03;;;1.93;;
15848;SDS011;8024;48.708;9.394;2023-07-29T02:01:17;3.80;;;2.83;;
15848;SDS011;8024;48.708;9.394;2023-07-29T02:03:44;1.97;;;1.73;;
15848;SDS011;8024;48.708;9.394;2023-07-29T02:06:11;2.00;;;1.90;;
15848;SDS011;8024;48.708;9.394;2023-07-29T02:08:38;3.10;;;1.93;;
15848;SDS011;8024;48.708;9.394;2023-07-29T02:11:06;2.97;;;1.90;;
15848;SDS011;8024;48.708;9.394;2023-07-29T02:13:36;2.13;;;1.97;;
15848;SDS011;8024;48.708;9.394;2023-07-29T02:16:04;2.47;;;1.90;;
15848;SDS011;8024;48.708;9.394;2023-07-29T02:18:31;2.10;;;1.90;;
15848;SDS011;8024;48.708;9.394;2023-07-29T02:20:58;2.37;;;1.70;;
15848;SDS011;8024;48.708;9.394;2023-07-29T02:23:25;2.80;;;2.07;;
15848;SDS011;8024;48.708;9.394;2023-07-29T02:25:52;2.43;;;1.80;;
15848;SDS011;8024;48.708;9.394;2023-07-29T02:28:19;4.53;;;2.13;;
15848;SDS011;8024;48.708;9.394;2023-07-29T02:30:48;2.73;;;2.10;;
15848;SDS011;8024;48.708;9.394;2023-07-29T02:33:36;2.40;;;2.20;;
15848;SDS011;8024;48.708;9.394;2023-07-29T02:36:04;2.63;;;2.03;;
15848;SDS011;8024;48.708;9.394;2023-07-29T02:38:31;2.10;;;1.87;;
15848;SDS011;8024;48.708;9.394;2023-07-29T02:40:58;2.30;;;2.10;;
15848;SDS011;8024;48.708;9.394;2023-07-29T02:43:25;3.53;;;1.77;;
15848;SDS011;8024;48.708;9.394;2023-07-29T02:45:54;2.43;;;1.83;;
15848;SDS011;8024;48.708;9.394;2023-07-29T02:48:21;1.80;;;1.70;;
15848;SDS011;8024;48.708;9.394;2023-07-29T02:50:48;2.03;;;1.80;;
15848;SDS011;8024;48.708;9.394;2023-07-29T02:53:15;2.07;;;1.97;;
15848;SDS011;8024;48.708;9.394;2023-07-29T02:55:42;1.93;;;1.50;;
15848;SDS011;8024;48.708;9.394;2023-07-29T02:58:09;1.60;;;1.50;;
15848;SDS011;8024;48.708;9.394;2023-07-29T03:00:36;2.37;;;1.60;;
15848;SDS011;8024;48.708;9.394;2023-07-29T03:03:07;2.07;;;1.90;;
15848;SDS011;8024;48.708;9.394;2023-07-29T03:05:35;2.57;;;1.70;;
15848;SDS011;8024;48.708;9.394;2023-07-29T03:08:03;1.93;;;1.57;;
15848;SDS011;8024;48.708;9.394;2023-07-29T03:10:30;1.80;;;1.40;;
15848;SDS011;8024;48.708;9.394;2023-07-29T03:13:00;2.97;;;1.57;;
15848;SDS011;8024;48.708;9.394;2023-07-29T03:15:27;2.17;;;1.70;;
15848;SDS011;8024;48.708;9.394;2023-07-29T03:17:55;1.90;;;1.80;;
15848;SDS011;8024;48.708;9.394;2023-07-29T03:20:23;2.30;;;1.70;;
15848;SDS011;8024;48.708;9.394;2023-07-29T03:22:50;1.90;;;1.30;;
15848;SDS011;8024;48.708;9.394;2023-07-29T03:25:17;1.20;;;1.20;;
15848;SDS011;8024;48.708;9.394;2023-07-29T03:27:45;1.43;;;1.43;;
15848;SDS011;8024;48.708;9.394;2023-07-29T03:30:14;3.10;;;1.57;;
15848;SDS011;8024;48.708;9.394;2023-07-29T03:32:45;2.00;;;1.80;;
15848;SDS011;8024;48.708;9.394;2023-07-29T03:35:12;2.07;;;1.87;;
15848;SDS011;8024;48.708;9.394;2023-07-29T03:37:40;3.17;;;1.57;;
15848;SDS011;8024;48.708;9.394;2023-07-29T03:40:08;1.40;;;1.27;;
15848;SDS011;8024;48.708;9.394;2023-07-29T03:42:36;1.93;;;1.50;;
15848;SDS011;8024;48.708;9.394;2023-07-29T03:45:03;2.30;;;1.37;;
15848;SDS011;8024;48.708;9.394;2023-07-29T03:47:31;1.70;;;1.60;;
15848;SDS011;8024;48.708;9.394;2023-07-29T03:49:58;1.27;;;1.17;;
15848;SDS011;8024;48.708;9.394;2023-07-29T03:52:29;1.80;;;1.70;;
15848;SDS011;8024;48.708;9.394;2023-07-29T03:54:58;2.83;;;2.10;;
15848;SDS011;8024;48.708;9.394;2023-07-29T03:57:25;2.03;;;1.93;;
15848;SDS011;8024;48.708;9.394;2023-07-29T03:59:52;3.87;;;2.20;;
15848;SDS011;8024;48.708;9.394;2023-07-29T04:02:19;2.40;;;2.20;;
15848;SDS011;8024;48.708;9.394;2023-07-29T04:04:46;2.30;;;2.20;;
15848;SDS011;8024;48.708;9.394;2023-07-29T04:07:13;2.93;;;1.87;;
15848;SDS011;8024;48.708;9.394;2023-07-29T04:09:41;3.63;;;1.97;;
15848;SDS011;8024;48.708;9.394;2023-07-29T04:12:10;2.07;;;1.87;;
15848;SDS011;8024;48.708;9.394;2023-07-29T04:14:37;3.30;;;1.50;;
15848;SDS011;8024;48.708;9.394;2023-07-29T04:17:04;1.20;;;1.20;;
15848;SDS011;8024;48.708;9.394;2023-07-29T04:19:32;1.60;;;1.50;;
15848;SDS011;8024;48.708;9.394;2023-07-29T04:21:59;1.50;;;1.40;;
15848;SDS011;8024;48.708;9.394;2023-07-29T04:24:26;3.33;;;1.60;;
15848;SDS011;8024;48.708;9.394;2023-07-29T04:26:54;1.40;;;1.30;;
15848;SDS011;8024;48.708;9.394;2023-07-29T04:29:22;2.23;;;1.83;;
15848;SDS011;8024;48.708;9.394;2023-07-29T04:31:49;1.70;;;1.60;;
15848;SDS011;8024;48.708;9.394;2023-07-29T04:34:17;2.07;;;1.50;;
15848;SDS011;8024;48.708;9.394;2023-07-29T04:36:44;2.40;;;1.67;;
15848;SDS011;8024;48.708;9.394;2023-07-29T04:39:11;1.90;;;1.80;;
15848;SDS011;8024;48.708;9.394;2023-07-29T04:41:38;1.70;;;1.60;;
15848;SDS011;8024;48.708;9.394;2023-07-29T04:44:06;1.70;;;1.60;;
15848;SDS011;8024;48.708;9.394;2023-07-29T04:46:35;2.47;;;1.93;;
15848;SDS011;8024;48.708;9.394;2023-07-29T04:49:02;2.10;;;1.90;;
15848;SDS011;8024;48.708;9.394;2023-07-29T04:51:29;1.63;;;1.53;;
15848;SDS011;8024;48.708;9.394;2023-07-29T04:53:57;3.77;;;2.03;;
15848;SDS011;8024;48.708;9.394;2023-07-29T04:56:24;7.83;;;3.03;;
15848;SDS011;8024;48.708;9.394;2023-07-29T04:58:51;5.60;;;3.57;;
15848;SDS011;8024;48.708;9.394;2023-07-29T05:01:19;5.23;;;4.27;;
15848;SDS011;8024;48.708;9.394;2023-07-29T05:03:47;4.83;;;4.30;;
15848;SDS011;8024;48.708;9.394;2023-07-29T05:06:14;5.13;;;4.70;;
15848;SDS011;8024;48.708;9.394;2023-07-29T05:08:41;5.63;;;4.37;;
15848;SDS011;8024;48.708;9.394;2023-07-29T05:11:09;11.50;;;5.20;;
15848;SDS011;8024;48.708;9.394;2023-07-29T05:13:36;5.27;;;4.67;;
15848;SDS011;8024;48.708;9.394;2023-07-29T05:16:04;8.03;;;5.43;;
15848;SDS011;8024;48.708;9.394;2023-07-29T05:18:31;6.53;;;5.87;;
15848;SDS011;8024;48.708;9.394;2023-07-29T05:20:59;6.77;;;5.67;;
15848;SDS011;8024;48.708;9.394;2023-07-29T05:23:26;11.40;;;5.90;;
15848;SDS011;8024;48.708;9.394;2023-07-29T05:25:54;7.80;;;5.57;;
15848;SDS011;8024;48.708;9.394;2023-07-29T05:28:21;6.77;;;6.10;;
15848;SDS011;8024;48.708;9.394;2023-07-29T05:30:48;7.00;;;6.40;;
15848;SDS011;8024;48.708;9.394;2023-07-29T05:33:15;6.17;;;4.80;;
15848;SDS011;8024;48.708;9.394;2023-07-29T05:35:42;6.57;;;5.23;;
15848;SDS011;8024;48.708;9.394;2023-07-29T05:38:13;10.50;;;4.50;;
15848;SDS011;8024;48.708;9.394;2023-07-29T05:40:40;5.93;;;5.00;;
15848;SDS011;8024;48.708;9.394;2023-07-29T05:43:07;5.80;;;5.03;;
15848;SDS011;8024;48.708;9.394;2023-07-29T05:45:34;4.37;;;3.80;;
15848;SDS011;8024;48.708;9.394;2023-07-29T05:48:02;5.43;;;4.23;;
15848;SDS011;8024;48.708;9.394;2023-07-29T05:50:29;5.40;;;4.30;;
15848;SDS011;8024;48.708;9.394;2023-07-29T05:52:56;4.57;;;3.70;;
15848;SDS011;8024;48.708;9.394;2023-07-29T05:55:25;4.57;;;3.57;;
15848;SDS011;8024;48.708;9.394;2023-07-29T05:57:52;5.90;;;3.73;;
15848;SDS011;8024;48.708;9.394;2023-07-29T06:00:20;4.80;;;4.30;;
15848;SDS011;8024;48.708;9.394;2023-07-29T06:02:47;5.57;;;5.07;;
15848;SDS011;8024;48.708;9.394;2023-07-29T06:05:14;5.17;;;4.73;;
15848;SDS011;8024;48.708;9.394;2023-07-29T06:07:41;5.13;;;4.70;;
15848;SDS011;8024;48.708;9.394;2023-07-29T06:10:09;4.87;;;4.47;;
15848;SDS011;8024;48.708;9.394;2023-07-29T06:12:39;5.20;;;4.27;;
15848;SDS011;8024;48.708;9.394;2023-07-29T06:15:07;5.30;;;4.57;;
15848;SDS011;8024;48.708;9.394;2023-07-29T06:17:35;5.57;;;4.67;;
15848;SDS011;8024;48.708;9.394;2023-07-29T06:20:02;6.70;;;5.03;;
15848;SDS011;8024;48.708;9.394;2023-07-29T06:22:30;5.73;;;4.80;;
15848;SDS011;8024;48.708;9.394;2023-07-29T06:24:58;6.27;;;4.57;;
15848;SDS011;8024;48.708;9.394;2023-07-29T06:27:25;4.90;;;4.13;;
15848;SDS011;8024;48.708;9.394;2023-07-29T06:29:54;4.37;;;3.87;;
15848;SDS011;8024;48.708;9.394;2023-07-29T06:32:21;7.00;;;3.80;;
15848;SDS011;8024;48.708;9.394;2023-07-29T06:34:48;4.10;;;3.73;;
15848;SDS011;8024;48.708;9.394;2023-07-29T06:37:16;3.90;;;3.53;;
15848;SDS011;8024;48.708;9.394;2023-07-29T06:39:44;3.37;;;3.07;;
15848;SDS011;8024;48.708;9.394;2023-07-29T06:42:11;3.50;;;3.20;;
15848;SDS011;8024;48.708;9.394;2023-07-29T06:44:39;3.60;;;2.53;;
15848;SDS011;8024;48.708;9.394;2023-07-29T06:47:07;4.73;;;3.10;;
15848;SDS011;8024;48.708;9.394;2023-07-29T06:49:35;3.13;;;2.83;;
15848;SDS011;8024;48.708;9.394;2023-07-29T06:52:02;8.37;;;4.33;;
15848;SDS011;8024;48.708;9.394;2023-07-29T06:54:29;2.93;;;2.40;;
15848;SDS011;8024;48.708;9.394;2023-07-29T06:56:56;3.03;;;2.70;;
15848;SDS011;8024;48.708;9.394;2023-07-29T06:59:24;2.50;;;1.80;;
15848;SDS011;8024;48.708;9.394;2023-07-29T07:01:51;2.33;;;2.13;;
15848;SDS011;8024;48.708;9.394;2023-07-29T07:04:20;4.80;;;2.63;;
15848;SDS011;8024;48.708;9.394;2023-07-29T07:06:47;5.03;;;2.70;;
15848;SDS011;8024;48.708;9.394;2023-07-29T07:09:14;7.50;;;2.43;;
15848;SDS011;8024;48.708;9.394;2023-07-29T07:11:41;6.63;;;4.17;;
15848;SDS011;8024;48.708;9.394;2023-07-29T07:14:08;6.07;;;3.07;;
15848;SDS011;8024;48.708;9.394;2023-07-29T07:16:36;6.27;;;2.63;;
15848;SDS011;8024;48.708;9.394;2023-07-29T07:19:04;7.87;;;3.67;;
15848;SDS011;8024;48.708;9.394;2023-07-29T07:21:32;5.57;;;2.70;;
15848;SDS011;8024;48.708;9.394;2023-07-29T07:24:00;2.40;;;2.20;;
15848;SDS011;8024;48.708;9.394;2023-07-29T07:26:27;2.33;;;1.10;;
15848;SDS011;8024;48.708;9.394;2023-07-29T07:28:54;3.50;;;1.07;;
15848;SDS011;8024;48.708;9.394;2023-07-29T07:31:21;7.43;;;1.40;;
15848;SDS011;8024;48.708;9.394;2023-07-29T07:33:49;4.80;;;1.10;;
15848;SDS011;8024;48.708;9.394;2023-07-29T07:36:16;1.13;;;0.53;;
15848;SDS011;8024;48.708;9.394;2023-07-29T07:38:44;3.07;;;0.87;;
15848;SDS011;8024;48.708;9.394;2023-07-29T07:41:12;1.03;;;0.60;;
15848;SDS011;8024;48.708;9.394;2023-07-29T07:43:39;2.57;;;0.50;;
15848;SDS011;8024;48.708;9.394;2023-07-29T07:46:06;2.10;;;0.40;;
15848;SDS011;8024;48.708;9.394;2023-07-29T07:48:33;2.07;;;0.50;;
15848;SDS011;8024;48.708;9.394;2023-07-29T07:51:09;3.43;;;0.90;;
15848;SDS011;8024;48.708;9.394;2023-07-29T07:53:37;2.27;;;0.90;;
15848;SDS011;8024;48.708;9.394;2023-07-29T07:56:06;2.20;;;1.00;;
15848;SDS011;8024;48.708;9.394;2023-07-29T07:58:33;1.77;;;0.80;;
15848;SDS011;8024;48.708;9.394;2023-07-29T08:01:01;1.07;;;0.40;;
15848;SDS011;8024;48.708;9.394;2023-07-29T08:03:29;1.70;;;0.60;;
15848;SDS011;8024;48.708;9.394;2023-07-29T08:05:56;2.13;;;1.00;;
15848;SDS011;8024;48.708;9.394;2023-07-29T08:08:24;1.90;;;0.87;;
15848;SDS011;8024;48.708;9.394;2023-07-29T08:10:52;4.13;;;1.10;;
15848;SDS011;8024;48.708;9.394;2023-07-29T08:13:21;1.43;;;1.37;;
15848;SDS011;8024;48.708;9.394;2023-07-29T08:15:49;3.70;;;1.00;;
15848;SDS011;8024;48.708;9.394;2023-07-29T08:18:17;2.03;;;1.13;;
15848;SDS011;8024;48.708;9.394;2023-07-29T08:20:52;2.13;;;1.23;;
15848;SDS011;8024;48.708;9.394;2023-07-29T08:23:20;1.20;;;1.10;;
15848;SDS011;8024;48.708;9.394;2023-07-29T08:25:50;1.97;;;1.63;;
15848;SDS011;8024;48.708;9.394;2023-07-29T08:28:19;2.00;;;1.83;;
15848;SDS011;8024;48.708;9.394;2023-07-29T08:30:47;2.30;;;2.00;;
15848;SDS011;8024;48.708;9.394;2023-07-29T08:33:15;2.13;;;1.93;;
15848;SDS011;8024;48.708;9.394;2023-07-29T08:35:42;5.13;;;2.67;;
15848;SDS011;8024;48.708;9.394;2023-07-29T08:38:09;2.33;;;1.67;;
15848;SDS011;8024;48.708;9.394;2023-07-29T08:40:37;2.67;;;1.97;;
15848;SDS011;8024;48.708;9.394;2023-07-29T08:43:08;2.77;;;1.87;;
15848;SDS011;8024;48.708;9.394;2023-07-29T08:45:38;2.57;;;2.37;;
15848;SDS011;8024;48.708;9.394;2023-07-29T08:48:08;2.50;;;2.30;;
15848;SDS011;8024;48.708;9.394;2023-07-29T08:50:37;2.70;;;2.00;;
15848;SDS011;8024;48.708;9.394;2023-07-29T08:53:04;3.53;;;2.40;;
15848;SDS011;8024;48.708;9.394;2023-07-29T08:55:31;2.00;;;1.83;;
15848;SDS011;8024;48.708;9.394;2023-07-29T08:57:59;3.90;;;1.90;;
15848;SDS011;8024;48.708;9.394;2023-07-29T09:00:27;3.10;;;1.70;;
15848;SDS011;8024;48.708;9.394;2023-07-29T09:02:55;1.87;;;1.73;;
15848;SDS011;8024;48.708;9.394;2023-07-29T09:05:27;1.87;;;1.70;;
15848;SDS011;8024;48.708;9.394;2023-07-29T09:07:54;3.00;;;2.10;;
15848;SDS011;8024;48.708;9.394;2023-07-29T09:10:22;3.03;;;1.67;;
15848;SDS011;8024;48.708;9.394;2023-07-29T09:12:52;4.20;;;2.07;;
15848;SDS011;8024;48.708;9.394;2023-07-29T09:15:26;1.60;;;1.50;;
15848;SDS011;8024;48.708;9.394;2023-07-29T09:17:56;2.00;;;1.10;;
15848;SDS011;8024;48.708;9.394;2023-07-29T09:20:24;2.80;;;1.60;;
15848;SDS011;8024;48.708;9.394;2023-07-29T09:22:52;3.60;;;1.70;;
15848;SDS011;8024;48.708;9.394;2023-07-29T09:25:23;2.10;;;1.43;;
15848;SDS011;8024;48.708;9.394;2023-07-29T09:27:51;3.30;;;1.20;;
15848;SDS011;8024;48.708;9.394;2023-07-29T09:30:18;1.47;;;1.20;;
15848;SDS011;8024;48.708;9.394;2023-07-29T09:32:46;1.77;;;1.00;;
15848;SDS011;8024;48.708;9.394;2023-07-29T09:35:19;1.97;;;1.10;;
15848;SDS011;8024;48.708;9.394;2023-07-29T09:37:47;1.50;;;0.87;;
15848;SDS011;8024;48.708;9.394;2023-07-29T09:40:15;1.33;;;1.00;;
15848;SDS011;8024;48.708;9.394;2023-07-29T09:42:49;0.80;;;0.80;;
15848;SDS011;8024;48.708;9.394;2023-07-29T09:45:21;1.77;;;1.17;;
15848;SDS011;8024;48.708;9.394;2023-07-29T09:47:48;2.00;;;0.80;;
15848;SDS011;8024;48.708;9.394;2023-07-29T09:50:16;1.57;;;1.10;;
15848;SDS011;8024;48.708;9.394;2023-07-29T09:52:45;1.93;;;1.17;;
15848;SDS011;8024;48.708;9.394;2023-07-29T09:55:13;1.33;;;1.23;;
15848;SDS011;8024;48.708;9.394;2023-07-29T09:57:44;1.23;;;0.90;;
15848;SDS011;8024;48.708;9.394;2023-07-29T10:00:12;1.77;;;1.43;;
15848;SDS011;8024;48.708;9.394;2023-07-29T10:02:40;1.20;;;0.93;;
15848;SDS011;8024;48.708;9.394;2023-07-29T10:05:08;1.03;;;0.83;;
15848;SDS011;8024;48.708;9.394;2023-07-29T10:07:36;2.53;;;1.00;;
15848;SDS011;8024;48.708;9.394;2023-07-29T10:10:06;1.20;;;1.10;;
15848;SDS011;8024;48.708;9.394;2023-07-29T10:12:34;1.67;;;1.57;;
15848;SDS011;8024;48.708;9.394;2023-07-29T10:15:02;2.13;;;1.10;;
15848;SDS011;8024;48.708;9.394;2023-07-29T10:17:33;1.00;;;1.00;;
15848;SDS011;8024;48.708;9.394;2023-07-29T10:20:02;3.60;;;1.17;;
15848;SDS011;8024;48.708;9.394;2023-07-29T10:22:33;1.70;;;1.20;;
15848;SDS011;8024;48.708;9.394;2023-07-29T10:25:03;1.47;;;0.93;;
15848;SDS011;8024;48.708;9.394;2023-07-29T10:27:35;1.20;;;1.00;;
15848;SDS011;8024;48.708;9.394;2023-07-29T10:30:08;1.80;;;1.60;;
15848;SDS011;8024;48.708;9.394;2023-07-29T10:32:38;0.93;;;0.93;;
15848;SDS011;8024;48.708;9.394;2023-07-29T10:35:07;0.87;;;0.87;;
15848;SDS011;8024;48.708;9.394;2023-07-29T10:37:35;1.30;;;1.10;;
15848;SDS011;8024;48.708;9.394;2023-07-29T10:40:05;1.33;;;1.20;;
15848;SDS011;8024;48.708;9.394;2023-07-29T10:42:35;1.43;;;1.30;;
15848;SDS011;8024;48.708;9.394;2023-07-29T10:45:18;0.93;;;0.93;;
15848;SDS011;8024;48.708;9.394;2023-07-29T10:47:47;2.23;;;1.27;;
15848;SDS011;8024;48.708;9.394;2023-07-29T10:50:18;1.53;;;1.10;;
15848;SDS011;8024;48.708;9.394;2023-07-29T10:52:48;1.13;;;0.97;;
15848;SDS011;8024;48.708;9.394;2023-07-29T10:55:25;2.40;;;1.07;;
15848;SDS011;8024;48.708;9.394;2023-07-29T10:58:04;1.13;;;0.93;;
15848;SDS011;8024;48.708;9.394;2023-07-29T11:00:32;1.13;;;1.10;;
15848;SDS011;8024;48.708;9.394;2023-07-29T11:03:00;2.03;;;1.23;;
15848;SDS011;8024;48.708;9.394;2023-07-29T11:05:41;1.30;;;1.20;;
15848;SDS011;8024;48.708;9.394;2023-07-29T11:08:16;2.00;;;1.10;;
15848;SDS011;8024;48.708;9.394;2023-07-29T11:10:59;1.20;;;1.10;;
15848;SDS011;8024;48.708;9.394;2023-07-29T11:13:31;0.97;;;0.70;;
15848;SDS011;8024;48.708;9.394;2023-07-29T11:15:59;1.67;;;1.10;;
15848;SDS011;8024;48.708;9.394;2023-07-29T11:18:27;0.87;;;0.80;;
15848;SDS011;8024;48.708;9.394;2023-07-29T11:20:55;0.90;;;0.90;;
15848;SDS011;8024;48.708;9.394;2023-07-29T11:23:33;1.17;;;0.93;;
15848;SDS011;8024;48.708;9.394;2023-07-29T11:26:02;1.30;;;1.20;;
15848;SDS011;8024;48.708;9.394;2023-07-29T11:28:31;0.90;;;0.90;;
15848;SDS011;8024;48.708;9.394;2023-07-29T11:31:04;2.40;;;0.67;;
15848;SDS011;8024;48.708;9.394;2023-07-29T11:33:32;0.73;;;0.70;;
15848;SDS011;8024;48.708;9.394;2023-07-29T11:35:59;0.80;;;0.70;;
15848;SDS011;8024;48.708;9.394;2023-07-29T11:38:26;0.70;;;0.70;;
15848;SDS011;8024;48.708;9.394;2023-07-29T11:40:54;0.93;;;0.80;;
15848;SDS011;8024;48.708;9.394;2023-07-29T11:43:23;1.03;;;0.93;;
15848;SDS011;8024;48.708;9.394;2023-07-29T11:45:51;0.70;;;0.70;;
15848;SDS011;8024;48.708;9.394;2023-07-29T11:48:25;1.07;;;0.80;;
15848;SDS011;8024;48.708;9.394;2023-07-29T11:50:53;1.70;;;0.77;;
15848;SDS011;8024;48.708;9.394;2023-07-29T11:53:25;0.70;;;0.70;;
15848;SDS011;8024;48.708;9.394;2023-07-29T11:55:54;0.67;;;0.67;;
15848;SDS011;8024;48.708;9.394;2023-07-29T11:58:21;0.70;;;0.70;;
15848;SDS011;8024;48.708;9.394;2023-07-29T12:00:50;1.43;;;0.50;;
15848;SDS011;8024;48.708;9.394;2023-07-29T12:03:18;0.63;;;0.63;;
15848;SDS011;8024;48.708;9.394;2023-07-29T12:05:45;0.80;;;0.80;;
15848;SDS011;8024;48.708;9.394;2023-07-29T12:08:12;0.97;;;0.67;;
15848;SDS011;8024;48.708;9.394;2023-07-29T12:10:40;1.73;;;0.70;;
15848;SDS011;8024;48.708;9.394;2023-07-29T12:13:08;1.50;;;0.60;;
15848;SDS011;8024;48.708;9.394;2023-07-29T12:15:37;0.93;;;0.60;;
15848;SDS011;8024;48.708;9.394;2023-07-29T12:18:05;1.93;;;0.73;;
15848;SDS011;8024;48.708;9.394;2023-07-29T12:20:33;1.53;;;0.80;;
15848;SDS011;8024;48.708;9.394;2023-07-29T12:23:00;1.37;;;1.30;;
15848;SDS011;8024;48.708;9.394;2023-07-29T12:25:31;1.27;;;1.00;;
15848;SDS011;8024;48.708;9.394;2023-07-29T12:28:01;1.60;;;0.97;;
15848;SDS011;8024;48.708;9.394;2023-07-29T12:30:30;1.07;;;0.93;;
15848;SDS011;8024;48.708;9.394;2023-07-29T12:32:58;1.17;;;0.80;;
15848;SDS011;8024;48.708;9.394;2023-07-29T12:35:33;2.33;;;1.10;;
15848;SDS011;8024;48.708;9.394;2023-07-29T12:38:01;1.27;;;1.03;;
15848;SDS011;8024;48.708;9.394;2023-07-29T12:40:28;1.07;;;1.00;;
15848;SDS011;8024;48.708;9.394;2023-07-29T12:42:56;3.23;;;1.03;;
15848;SDS011;8024;48.708;9.394;2023-07-29T12:45:23;1.23;;;0.83;;
15848;SDS011;8024;48.708;9.394;2023-07-29T12:47:52;0.77;;;0.70;;
15848;SDS011;8024;48.708;9.394;2023-07-29T12:50:20;0.67;;;0.67;;
15848;SDS011;8024;48.708;9.394;2023-07-29T12:52:47;1.20;;;1.10;;
15848;SDS011;8024;48.708;9.394;2023-07-29T12:55:15;0.70;;;0.70;;
15848;SDS011;8024;48.708;9.394;2023-07-29T12:57:42;2.60;;;0.93;;
15848;SDS011;8024;48.708;9.394;2023-07-29T13:00:10;1.43;;;0.60;;
15848;SDS011;8024;48.708;9.394;2023-07-29T13:02:38;0.77;;;0.60;;
15848;SDS011;8024;48.708;9.394;2023-07-29T13:05:05;0.70;;;0.70;;
15848;SDS011;8024;48.708;9.394;2023-07-29T13:07:37;0.90;;;0.90;;
15848;SDS011;8024;48.708;9.394;2023-07-29T13:10:05;0.93;;;0.80;;
15848;SDS011;8024;48.708;9.394;2023-07-29T13:12:32;1.67;;;1.03;;
15848;SDS011;8024;48.708;9.394;2023-07-29T13:14:59;1.37;;;0.93;;
15848;SDS011;8024;48.708;9.394;2023-07-29T13:17:27;0.87;;;0.70;;
15848;SDS011;8024;48.708;9.394;2023-07-29T13:19:54;1.23;;;1.13;;
15848;SDS011;8024;48.708;9.394;2023-07-29T13:22:21;1.13;;;1.13;;
15848;SDS011;8024;48.708;9.394;2023-07-29T13:24:49;0.93;;;0.90;;
15848;SDS011;8024;48.708;9.394;2023-07-29T13:27:17;1.00;;;0.77;;
15848;SDS011;8024;48.708;9.394;2023-07-29T13:29:44;0.80;;;0.80;;
15848;SDS011;8024;48.708;9.394;2023-07-29T13:32:11;0.90;;;0.90;;
15848;SDS011;8024;48.708;9.394;2023-07-29T13:34:39;1.93;;;0.70;;
15848;SDS011;8024;48.708;9.394;2023-07-29T13:37:06;3.60;;;1.00;;
15848;SDS011;8024;48.708;9.394;2023-07-29T13:39:33;2.23;;;1.20;;
15848;SDS011;8024;48.708;9.394;2023-07-29T13:42:02;0.60;;;0.60;;
15848;SDS011;8024;48.708;9.394;2023-07-29T13:44:29;0.53;;;0.50;;
15848;SDS011;8024;48.708;9.394;2023-07-29T13:46:56;0.90;;;0.90;;
15848;SDS011;8024;48.708;9.394;2023-07-29T13:49:23;1.73;;;0.83;;
15848;SDS011;8024;48.708;9.394;2023-07-29T13:51:51;1.27;;;0.80;;
15848;SDS011;8024;48.708;9.394;2023-07-29T13:54:18;0.97;;;0.93;;
15848;SDS011;8024;48.708;9.394;2023-07-29T13:56:46;1.13;;;0.87;;
15848;SDS011;8024;48.708;9.394;2023-07-29T13:59:15;2.73;;;0.60;;
15848;SDS011;8024;48.708;9.394;2023-07-29T14:01:42;0.73;;;0.67;;
15848;SDS011;8024;48.708;9.394;2023-07-29T14:04:09;1.23;;;0.73;;
15848;SDS011;8024;48.708;9.394;2023-07-29T14:06:36;1.50;;;0.83;;
15848;SDS011;8024;48.708;9.394;2023-07-29T14:09:03;2.73;;;0.83;;
15848;SDS011;8024;48.708;9.394;2023-07-29T14:11:31;0.60;;;0.60;;
15848;SDS011;8024;48.708;9.394;2023-07-29T14:13:58;1.10;;;0.97;;
15848;SDS011;8024;48.708;9.394;2023-07-29T14:16:26;1.63;;;0.87;;
15848;SDS011;8024;48.708;9.394;2023-07-29T14:18:53;0.77;;;0.77;;
15848;SDS011;8024;48.708;9.394;2023-07-29T14:21:21;0.93;;;0.67;;
15848;SDS011;8024;48.708;9.394;2023-07-29T14:23:48;0.80;;;0.80;;
15848;SDS011;8024;48.708;9.394;2023-07-29T14:26:15;0.80;;;0.80;;
15848;SDS011;8024;48.708;9.394;2023-07-29T14:28:42;0.90;;;0.90;;
15848;SDS011;8024;48.708;9.394;2023-07-29T14:31:09;0.70;;;0.70;;
15848;SDS011;8024;48.708;9.394;2023-07-29T14:33:38;0.80;;;0.80;;
15848;SDS011;8024;48.708;9.394;2023-07-29T14:36:05;1.13;;;1.03;;
15848;SDS011;8024;48.708;9.394;2023-07-29T14:38:32;1.10;;;0.97;;
15848;SDS011;8024;48.708;9.394;2023-07-29T14:41:00;1.40;;;0.87;;
15848;SDS011;8024;48.708;9.394;2023-07-29T14:43:28;1.97;;;0.90;;
15848;SDS011;8024;48.708;9.394;2023-07-29T14:45:55;0.90;;;0.90;;
15848;SDS011;8024;48.708;9.394;2023-07-29T14:48:22;0.80;;;0.80;;
15848;SDS011;8024;48.708;9.394;2023-07-29T14:50:51;1.00;;;0.90;;
15848;SDS011;8024;48.708;9.394;2023-07-29T14:53:18;1.27;;;0.60;;
15848;SDS011;8024;48.708;9.394;2023-07-29T14:55:45;1.00;;;0.90;;
15848;SDS011;8024;48.708;9.394;2023-07-29T14:58:12;1.10;;;1.00;;
15848;SDS011;8024;48.708;9.394;2023-07-29T15:00:40;1.03;;;0.63;;
15848;SDS011;8024;48.708;9.394;2023-07-29T15:03:07;1.20;;;0.87;;
15848;SDS011;8024;48.708;9.394;2023-07-29T15:05:34;0.70;;;0.70;;
15848;SDS011;8024;48.708;9.394;2023-07-29T15:08:02;1.00;;;0.87;;